Time;durP1;ratioP1;P1;durP2;ratioP2;P2;SDS_P1;SDS_P2;PMS_P1;PMS_P2;Temp;Humidity;BMP_temperature;BMP_pressure;BME280_temperature;BME280_humidity;BME280_pressure;Samples;Min_cycle;Max_cycle;Signal;HPM_P1;HPM_P2
2022/04/17 00:00:52;;;;;;;8.32;5.50;;;15.70;56.20;;;;;;5031944;28;20053;-71
2022/04/17 00:03:21;;;;;;;11.07;6.05;;;15.10;56.10;;;;;;5030399;28;20063;-71
2022/04/17 00:05:50;;;;;;;9.80;5.82;;;15.30;56.20;;;;;;5031810;28;20387;-71
2022/04/17 00:08:16;;;;;;;7.55;5.05;;;15.20;55.90;;;;;;5032988;28;20068;-72
2022/04/17 00:10:44;;;;;;;8.65;6.03;;;15.80;56.20;;;;;;5030617;28;20056;-71
2022/04/17 00:13:11;;;;;;;8.10;5.68;;;15.50;56.20;;;;;;5030477;28;20064;-72
2022/04/17 00:15:37;;;;;;;8.27;6.10;;;15.30;51.90;;;;;;5031788;28;20052;-72
2022/04/17 00:18:04;;;;;;;9.60;5.70;;;15.40;53.00;;;;;;5031985;28;20422;-71
2022/04/17 00:20:31;;;;;;;9.70;5.43;;;15.10;53.90;;;;;;5030290;28;20053;-72
2022/04/17 00:22:59;;;;;;;7.93;5.00;;;15.60;50.00;;;;;;5030624;28;20053;-70
2022/04/17 00:25:26;;;;;;;8.55;5.68;;;15.60;56.30;;;;;;5031318;28;20049;-70
2022/04/17 00:27:52;;;;;;;7.40;5.40;;;16.30;56.60;;;;;;5031877;28;20051;-72
2022/04/17 00:30:19;;;;;;;7.70;5.30;;;15.70;56.30;;;;;;5031363;28;20146;-71
2022/04/17 00:32:46;;;;;;;9.52;5.47;;;15.00;56.00;;;;;;5030291;28;20059;-71
2022/04/17 00:35:12;;;;;;;7.85;5.20;;;15.60;56.30;;;;;;5031526;28;20049;-71
2022/04/17 00:37:39;;;;;;;8.50;5.60;;;15.60;56.40;;;;;;5030349;28;20057;-71
2022/04/17 00:40:08;;;;;;;8.65;5.55;;;15.00;55.90;;;;;;5031416;28;20410;-71
2022/04/17 00:42:35;;;;;;;8.05;5.63;;;15.50;54.80;;;;;;5051489;28;20075;-71
2022/04/17 00:45:01;;;;;;;8.27;5.72;;;15.60;52.60;;;;;;5050175;28;20417;-71
2022/04/17 00:47:29;;;;;;;6.53;5.10;;;;;;;;;;5051605;28;20044;-71
2022/04/17 00:49:55;;;;;;;7.90;5.60;;;16.10;56.80;;;;;;5050012;28;20079;-71
2022/04/17 00:52:22;;;;;;;9.48;5.97;;;16.30;57.00;;;;;;5051224;28;20055;-71
2022/04/17 00:54:49;;;;;;;8.77;5.47;;;;;;;;;;5050291;28;20056;-70
2022/04/17 00:57:17;;;;;;;7.97;5.20;;;16.10;56.70;;;;;;5048556;28;20138;-71
2022/04/17 00:59:45;;;;;;;8.20;5.53;;;15.50;50.00;;;;;;5050051;28;20470;-71
2022/04/17 01:02:11;;;;;;;7.53;5.20;;;14.80;55.90;;;;;;5050122;28;20059;-71
2022/04/17 01:04:39;;;;;;;6.95;4.85;;;15.50;56.60;;;;;;5051152;28;20075;-71
2022/04/17 01:07:06;;;;;;;7.45;4.75;;;15.50;56.50;;;;;;5050182;28;20088;-71
2022/04/17 01:09:32;;;;;;;7.50;5.07;;;15.40;56.60;;;;;;5051024;28;20044;-71
2022/04/17 01:12:00;;;;;;;8.00;5.25;;;;;;;;;;5050158;28;20064;-71
2022/04/17 01:14:28;;;;;;;8.23;4.80;;;16.00;56.70;;;;;;5048106;28;20183;-71
2022/04/17 01:16:55;;;;;;;7.90;5.07;;;15.00;56.40;;;;;;5050233;28;20053;-71
2022/04/17 01:19:23;;;;;;;6.38;4.50;;;15.50;56.80;;;;;;5054667;28;20059;-71
2022/04/17 01:21:53;;;;;;;7.82;4.65;;;14.90;56.00;;;;;;5053741;28;20056;-71
2022/04/17 01:27:05;;;;;;;6.72;5.13;;;;;;;;;;5053234;28;20135;-71
2022/04/17 01:29:34;;;;;;;6.38;4.68;;;15.40;53.80;;;;;;5051365;28;20060;-71
2022/04/17 01:32:02;;;;;;;6.97;5.13;;;15.40;56.40;;;;;;5053348;28;20053;-71
2022/04/17 01:34:28;;;;;;;6.40;4.70;;;14.80;56.10;;;;;;5053493;28;20398;-71
2022/04/17 01:36:58;;;;;;;6.15;4.72;;;15.40;56.70;;;;;;5053449;28;20053;-71
2022/04/17 01:39:25;;;;;;;7.57;5.28;;;15.20;56.60;;;;;;5054302;28;20056;-69
2022/04/17 01:41:52;;;;;;;6.88;5.07;;;15.40;56.70;;;;;;5053014;28;20184;-71
2022/04/17 01:44:19;;;;;;;6.05;4.78;;;;;;;;;;5053288;28;20505;-71
2022/04/17 01:46:46;;;;;;;6.90;4.88;;;;;;;;;;5052580;28;20419;-71
2022/04/17 01:49:15;;;;;;;6.50;5.00;;;15.40;56.50;;;;;;5054135;28;20408;-71
2022/04/17 01:51:42;;;;;;;7.70;4.30;;;15.30;56.50;;;;;;5053003;28;20056;-71
2022/04/17 01:54:10;;;;;;;5.07;4.22;;;15.10;50.50;;;;;;5052981;28;20057;-71
2022/04/17 01:56:38;;;;;;;6.55;4.95;;;15.30;56.50;;;;;;5053124;28;20063;-71
2022/04/17 01:59:05;;;;;;;7.45;4.88;;;;;;;;;;5049571;28;20054;-70
2022/04/17 02:01:32;;;;;;;6.93;5.00;;;15.30;54.40;;;;;;5032736;28;20063;-71
2022/04/17 02:03:59;;;;;;;7.18;4.88;;;;;;;;;;5033873;28;20048;-71
2022/04/17 02:06:25;;;;;;;5.70;4.63;;;15.20;56.50;;;;;;5032818;28;20053;-71
2022/04/17 02:08:52;;;;;;;6.60;4.85;;;15.10;56.50;;;;;;5033844;28;20053;-71
2022/04/17 02:11:21;;;;;;;6.45;4.50;;;15.20;56.60;;;;;;5033888;28;20052;-72
2022/04/17 02:13:48;;;;;;;6.57;4.80;;;15.20;56.80;;;;;;5033591;28;20049;-71
2022/04/17 02:16:17;;;;;;;6.72;4.88;;;;;;;;;;5044274;28;20064;-71
2022/04/17 02:18:44;;;;;;;6.85;4.80;;;15.20;56.50;;;;;;5052380;28;20059;-72
2022/04/17 02:21:11;;;;;;;7.00;4.53;;;15.30;56.90;;;;;;5051864;28;20059;-72
2022/04/17 02:23:37;;;;;;;6.47;4.63;;;15.20;56.50;;;;;;5053422;28;20052;-71
2022/04/17 02:26:05;;;;;;;6.43;4.78;;;15.20;56.90;;;;;;5052249;28;20053;-71
2022/04/17 02:28:35;;;;;;;6.80;4.97;;;15.50;56.90;;;;;;5051676;28;20061;-71
2022/04/17 02:31:02;;;;;;;5.45;4.30;;;15.90;57.30;;;;;;5053073;28;20052;-71
2022/04/17 02:33:28;;;;;;;7.05;5.10;;;15.00;56.80;;;;;;5051684;28;20120;-71
2022/04/17 02:35:56;;;;;;;6.25;4.60;;;;;;;;;;5052013;28;20484;-71
2022/04/17 02:38:23;;;;;;;6.60;4.38;;;15.10;56.60;;;;;;5053337;28;20053;-71
2022/04/17 02:40:50;;;;;;;5.65;4.50;;;;;;;;;;5052056;28;20146;-70
2022/04/17 02:43:17;;;;;;;7.35;4.63;;;15.20;57.00;;;;;;5052120;28;20132;-71
2022/04/17 02:45:45;;;;;;;6.57;5.00;;;15.10;50.00;;;;;;5052866;28;20104;-70
2022/04/17 02:48:11;;;;;;;7.35;4.85;;;;;;;;;;5050441;28;20057;-71
2022/04/17 02:50:38;;;;;;;6.50;4.78;;;;;;;;;;5051848;28;20048;-70
2022/04/17 02:53:05;;;;;;;7.00;4.90;;;15.00;56.80;;;;;;5053102;28;20081;-71
2022/04/17 02:55:31;;;;;;;6.57;4.53;;;15.00;56.90;;;;;;5051790;28;20600;-71
2022/04/17 02:57:58;;;;;;;6.82;4.57;;;15.10;52.90;;;;;;5051909;28;20127;-71
2022/04/17 03:00:26;;;;;;;9.27;4.43;;;14.90;56.60;;;;;;5052961;28;20051;-71
2022/04/17 03:05:39;;;;;;;;;;;15.00;50.40;;;;;;5043339;28;20049;-71
2022/04/17 03:08:07;;;;;;;7.43;4.28;;;15.00;56.90;;;;;;5045239;28;20349;-71
2022/04/17 03:10:34;;;;;;;6.65;4.50;;;;;;;;;;5051423;28;20056;-71
2022/04/17 03:13:01;;;;;;;5.47;4.40;;;15.00;52.40;;;;;;5051572;28;20052;-71
2022/04/17 03:15:28;;;;;;;5.85;4.72;;;14.90;51.60;;;;;;5051304;28;20081;-71
2022/04/17 03:17:56;;;;;;;7.25;4.93;;;15.00;54.50;;;;;;5051545;28;20053;-71
2022/04/17 03:20:23;;;;;;;5.85;4.25;;;14.80;56.80;;;;;;5052539;28;20197;-71
2022/04/17 03:22:50;;;;;;;6.53;4.80;;;15.00;56.90;;;;;;5032562;28;20049;-71
2022/04/17 03:25:17;;;;;;;6.85;4.60;;;;;;;;;;5032336;28;20046;-71
2022/04/17 03:27:46;;;;;;;5.38;4.40;;;14.70;56.60;;;;;;5031477;28;20045;-71
2022/04/17 03:30:14;;;;;;;5.95;4.60;;;14.90;51.40;;;;;;5031068;28;20518;-71
2022/04/17 03:32:41;;;;;;;5.00;4.00;;;15.00;54.90;;;;;;5031073;28;20506;-71
2022/04/17 03:35:10;;;;;;;5.88;4.00;;;15.00;57.10;;;;;;5032398;28;20081;-71
2022/04/17 03:37:36;;;;;;;6.25;4.70;;;15.00;57.00;;;;;;5032414;28;20055;-71
2022/04/17 03:40:04;;;;;;;6.30;4.60;;;14.80;53.60;;;;;;5030878;28;20063;-71
2022/04/17 03:42:32;;;;;;;5.65;4.72;;;;;;;;;;5031078;28;20076;-70
2022/04/17 03:44:59;;;;;;;4.88;4.05;;;;;;;;;;5030967;28;20057;-72
2022/04/17 03:47:26;;;;;;;6.38;5.07;;;15.00;56.90;;;;;;5030767;28;20136;-71
2022/04/17 03:49:52;;;;;;;6.22;4.68;;;14.80;56.70;;;;;;5030979;28;20064;-71
2022/04/17 03:52:20;;;;;;;8.88;5.10;;;15.00;49.80;;;;;;5032793;28;20049;-70
2022/04/17 03:54:48;;;;;;;7.80;4.95;;;;;;;;;;5050102;28;20051;-70
2022/04/17 03:57:14;;;;;;;6.25;4.85;;;15.20;56.80;;;;;;5050660;28;20052;-71
2022/04/17 03:59:42;;;;;;;7.53;5.25;;;;;;;;;;5051786;28;20044;-71
2022/04/17 04:02:08;;;;;;;6.55;4.88;;;15.70;56.80;;;;;;5050964;28;20052;-72
2022/04/17 04:04:36;;;;;;;8.73;5.68;;;15.10;56.80;;;;;;5050687;28;20470;-71
2022/04/17 04:07:03;;;;;;;6.93;5.75;;;15.10;56.70;;;;;;5044980;28;20051;-71
2022/04/17 04:09:31;;;;;;;7.75;5.68;;;15.10;49.70;;;;;;5030441;28;20061;-70
2022/04/17 04:11:58;;;;;;;9.13;6.32;;;;;;;;;;5038023;28;20051;-70
2022/04/17 04:14:25;;;;;;;9.65;6.80;;;14.50;56.00;;;;;;5051669;28;20045;-71
2022/04/17 04:16:52;;;;;;;8.88;6.63;;;15.00;56.60;;;;;;5051494;28;20049;-71
2022/04/17 04:19:19;;;;;;;10.85;6.65;;;15.10;56.60;;;;;;5051690;28;20048;-71
2022/04/17 04:21:48;;;;;;;8.45;6.60;;;15.10;56.40;;;;;;5050331;28;20599;-71
2022/04/17 04:24:15;;;;;;;9.60;7.07;;;15.10;56.30;;;;;;5036845;28;20056;-71
2022/04/17 04:26:44;;;;;;;10.40;7.70;;;15.60;50.20;;;;;;5030336;28;20049;-71
2022/04/17 04:29:10;;;;;;;10.63;8.15;;;15.10;56.40;;;;;;5030009;28;20053;-72
2022/04/17 04:31:37;;;;;;;10.75;8.02;;;14.90;54.90;;;;;;5030393;28;20148;-71
2022/04/17 04:34:03;;;;;;;10.85;8.07;;;15.00;56.60;;;;;;5031588;28;20071;-71
2022/04/17 04:36:30;;;;;;;12.07;7.68;;;;;;;;;;5030307;28;20049;-71
2022/04/17 04:38:57;;;;;;;10.18;7.90;;;15.10;56.60;;;;;;5030264;28;20053;-71
2022/04/17 04:41:24;;;;;;;10.75;7.72;;;14.90;56.50;;;;;;5031283;28;20053;-71
2022/04/17 04:43:52;;;;;;;10.32;7.57;;;15.00;49.60;;;;;;5030468;28;20053;-70
2022/04/17 04:46:19;;;;;;;12.30;7.95;;;15.10;54.10;;;;;;5031673;28;20052;-71
2022/04/17 04:51:30;;;;;;;10.10;7.60;;;14.40;56.30;;;;;;5029937;28;20045;-72
2022/04/17 04:53:57;;;;;;;9.82;7.32;;;;;;;;;;5034743;28;20130;-70
2022/04/17 04:56:24;;;;;;;10.73;7.32;;;14.80;56.50;;;;;;5035142;28;20057;-71
2022/04/17 04:58:52;;;;;;;11.73;7.28;;;15.00;49.40;;;;;;5034169;28;20060;-71
2022/04/17 05:01:19;;;;;;;10.10;6.72;;;15.10;52.10;;;;;;5033917;28;20061;-71
2022/04/17 05:03:46;;;;;;;10.98;7.22;;;;;;;;;;5035122;28;20045;-72
2022/04/17 05:06:13;;;;;;;9.65;6.88;;;;;;;;;;5035024;28;20053;-71
2022/04/17 05:08:40;;;;;;;9.55;7.30;;;15.90;56.60;;;;;;5035330;28;20049;-71
2022/04/17 05:11:07;;;;;;;9.18;7.30;;;15.20;56.20;;;;;;5033784;28;20049;-71
2022/04/17 05:13:34;;;;;;;11.07;7.28;;;14.50;53.30;;;;;;5036042;28;20075;-71
2022/04/17 05:16:03;;;;;;;9.23;7.07;;;14.70;55.80;;;;;;5034646;28;20055;-71
2022/04/17 05:18:30;;;;;;;10.45;7.50;;;;;;;;;;5033899;28;20064;-70
2022/04/17 05:20:57;;;;;;;11.35;8.13;;;15.20;50.20;;;;;;5033503;28;20041;-71
2022/04/17 05:23:28;;;;;;;9.98;7.45;;;;;;;;;;5033514;28;20422;-71
2022/04/17 05:25:56;;;;;;;12.10;7.72;;;15.10;53.90;;;;;;5034765;28;20414;-72
2022/04/17 05:28:23;;;;;;;8.75;6.97;;;15.20;56.40;;;;;;5033601;28;20060;-71
2022/04/17 05:30:50;;;;;;;11.32;7.57;;;;;;;;;;5034463;28;20067;-70
2022/04/17 05:33:19;;;;;;;12.60;7.82;;;15.20;56.40;;;;;;5033492;28;20053;-71
2022/04/17 05:35:47;;;;;;;10.40;7.30;;;;;;;;;;5033392;28;20064;-71
2022/04/17 05:38:13;;;;;;;12.15;7.95;;;15.20;56.40;;;;;;5033565;28;20184;-71
2022/04/17 05:40:41;;;;;;;11.75;7.93;;;15.00;50.70;;;;;;5034390;28;20476;-71
2022/04/17 05:43:08;;;;;;;10.18;7.35;;;;;;;;;;5033269;28;20054;-70
2022/04/17 05:45:35;;;;;;;9.90;7.35;;;15.40;56.10;;;;;;5034347;28;20067;-71
2022/04/17 05:48:02;;;;;;;11.60;7.70;;;15.50;56.20;;;;;;5033052;28;20056;-71
2022/04/17 05:50:30;;;;;;;8.95;7.03;;;15.20;53.70;;;;;;5035549;28;20045;-70
2022/04/17 05:52:56;;;;;;;9.05;7.00;;;15.90;51.40;;;;;;5036816;28;20147;-71
2022/04/17 05:55:23;;;;;;;9.80;7.10;;;15.30;56.30;;;;;;5046349;28;20048;-71
2022/04/17 05:57:50;;;;;;;8.52;6.60;;;15.40;56.10;;;;;;5044266;28;20041;-71
2022/04/17 06:00:17;;;;;;;9.25;6.80;;;15.20;49.20;;;;;;5041830;28;20383;-71
2022/04/17 06:02:44;;;;;;;9.57;6.88;;;14.60;55.50;;;;;;5045452;28;20074;-71
2022/04/17 06:05:11;;;;;;;9.88;6.80;;;15.40;53.00;;;;;;5041318;28;20049;-71
2022/04/17 06:07:40;;;;;;;10.35;6.90;;;14.80;55.60;;;;;;5050378;28;20561;-71
2022/04/17 06:10:08;;;;;;;8.90;6.88;;;15.30;49.20;;;;;;5052331;28;20064;-71
2022/04/17 06:12:35;;;;;;;8.27;6.55;;;;;;;;;;5052171;28;20052;-70
2022/04/17 06:15:02;;;;;;;9.13;6.55;;;15.30;56.30;;;;;;5053454;28;20053;-71
2022/04/17 06:17:29;;;;;;;8.90;6.63;;;;;;;;;;5052438;28;20048;-71
2022/04/17 06:19:56;;;;;;;9.00;6.45;;;14.70;55.90;;;;;;5048876;28;20124;-71
2022/04/17 06:22:23;;;;;;;8.82;6.63;;;;;;;;;;5052680;28;20053;-70
2022/04/17 06:24:51;;;;;;;10.40;6.75;;;15.40;56.00;;;;;;5053482;28;20052;-71
2022/04/17 06:27:18;;;;;;;8.27;6.55;;;15.40;56.00;;;;;;5052157;28;20508;-71
2022/04/17 06:29:45;;;;;;;8.48;6.43;;;15.30;56.10;;;;;;5053409;28;20063;-71
2022/04/17 06:32:12;;;;;;;8.70;6.50;;;;;;;;;;5052726;28;20053;-71
2022/04/17 06:34:38;;;;;;;9.82;6.82;;;15.50;56.20;;;;;;5052206;28;20059;-71
2022/04/17 06:37:05;;;;;;;9.35;6.40;;;15.30;55.90;;;;;;5035011;28;20049;-71
2022/04/17 06:39:32;;;;;;;9.20;6.50;;;15.50;55.80;;;;;;5032287;28;20490;-71
2022/04/17 06:42:00;;;;;;;8.55;6.40;;;15.50;55.80;;;;;;5032147;28;20049;-71
2022/04/17 06:44:26;;;;;;;9.77;6.57;;;15.00;55.50;;;;;;5032283;28;20053;-71
2022/04/17 06:46:53;;;;;;;9.52;5.93;;;15.80;55.90;;;;;;5032492;28;20486;-71
2022/04/17 06:49:20;;;;;;;10.00;6.90;;;;;;;;;;5033162;28;20046;-71
2022/04/17 06:51:47;;;;;;;9.15;6.50;;;15.90;55.30;;;;;;5044609;28;20408;-71
2022/04/17 06:54:13;;;;;;;8.10;6.10;;;15.40;55.10;;;;;;5042851;28;20049;-71
2022/04/17 06:56:41;;;;;;;9.43;5.70;;;16.20;51.10;;;;;;5040011;28;20041;-70
2022/04/17 06:59:09;;;;;;;7.32;5.82;;;16.40;55.20;;;;;;5041724;28;20132;-71
2022/04/17 07:01:36;;;;;;;8.10;6.00;;;16.50;50.70;;;;;;5041197;28;20048;-71
2022/04/17 07:04:03;;;;;;;7.05;5.60;;;17.00;55.00;;;;;;5042892;28;20056;-71
2022/04/17 07:06:29;;;;;;;8.75;6.25;;;16.50;54.50;;;;;;5040749;28;20385;-71
2022/04/17 07:08:56;;;;;;;8.05;5.55;;;;;;;;;;5041184;28;20060;-71
2022/04/17 07:11:23;;;;;;;8.40;5.10;;;17.00;54.50;;;;;;5043116;28;20047;-72
2022/04/17 07:13:50;;;;;;;9.10;5.68;;;16.60;54.20;;;;;;5042158;28;20057;-72
2022/04/17 07:16:18;;;;;;;8.35;5.82;;;16.40;53.60;;;;;;5041292;28;20053;-71
2022/04/17 07:18:45;;;;;;;7.55;6.03;;;;;;;;;;5047981;28;20055;-71
2022/04/17 07:21:12;;;;;;;7.28;5.40;;;16.80;53.80;;;;;;5043516;28;20128;-72
2022/04/17 07:23:38;;;;;;;8.68;5.72;;;17.30;54.10;;;;;;5042955;28;20037;-71
2022/04/17 07:26:05;;;;;;;10.18;5.90;;;17.40;53.70;;;;;;5044316;28;20100;-71
2022/04/17 07:28:32;;;;;;;8.10;5.30;;;17.80;53.80;;;;;;5039495;28;21642;-72
2022/04/17 07:30:59;;;;;;;7.68;5.15;;;17.40;53.80;;;;;;5041521;28;20055;-70
2022/04/17 07:33:27;;;;;;;9.80;6.20;;;17.40;53.50;;;;;;5042000;28;20108;-71
2022/04/17 07:35:53;;;;;;;9.38;5.30;;;17.40;53.20;;;;;;5040832;28;20042;-71
2022/04/17 07:38:20;;;;;;;7.65;5.20;;;17.10;53.30;;;;;;5049332;28;20053;-71
2022/04/17 07:40:47;;;;;;;6.85;5.03;;;17.60;53.60;;;;;;5047533;28;20411;-70
2022/04/17 07:43:14;;;;;;;7.18;5.57;;;16.80;53.10;;;;;;5042749;28;20076;-71
2022/04/17 07:45:40;;;;;;;7.07;5.45;;;16.80;52.90;;;;;;5041665;28;20055;-71
2022/04/17 07:48:07;;;;;;;7.50;5.32;;;17.80;47.30;;;;;;5041417;28;20340;-71
2022/04/17 07:50:35;;;;;;;7.70;5.32;;;18.20;53.90;;;;;;5039875;28;20053;-71
2022/04/17 07:53:02;;;;;;;6.35;5.30;;;17.00;53.10;;;;;;5041676;28;20055;-71
2022/04/17 07:55:29;;;;;;;6.22;5.10;;;17.60;53.40;;;;;;5040340;28;20054;-71
2022/04/17 07:58:01;;;;;;;8.75;5.00;;;17.50;48.50;;;;;;5037933;28;20421;-70
2022/04/17 08:00:31;;;;;;;6.35;4.82;;;17.10;52.90;;;;;;5040069;28;20474;-71
2022/04/17 08:03:06;;;;;;;7.40;4.78;;;17.40;53.60;;;;;;5040667;28;20092;-71
2022/04/17 08:05:37;;;;;;;7.20;4.95;;;18.30;53.60;;;;;;5040237;28;20053;-71
2022/04/17 08:08:04;;;;;;;8.13;4.57;;;17.60;53.10;;;;;;5041275;28;20041;-71
2022/04/17 08:10:30;;;;;;;7.15;4.65;;;17.70;53.10;;;;;;5040097;28;20059;-71
2022/04/17 08:12:57;;;;;;;5.90;4.32;;;17.80;53.60;;;;;;5041256;28;20483;-71
2022/04/17 08:15:24;;;;;;;6.07;4.18;;;17.40;52.90;;;;;;5034307;28;20053;-71
2022/04/17 08:17:50;;;;;;;5.90;4.57;;;17.60;53.30;;;;;;5031519;28;20049;-71
2022/04/17 08:20:17;;;;;;;6.82;4.40;;;18.00;53.50;;;;;;5030394;28;20060;-71
2022/04/17 08:22:46;;;;;;;7.70;4.68;;;17.80;53.20;;;;;;5031717;28;20049;-70
2022/04/17 08:25:12;;;;;;;5.60;4.05;;;17.80;49.40;;;;;;5030841;28;20053;-71
2022/04/17 08:27:45;;;;;;;5.70;4.30;;;18.10;53.30;;;;;;5051698;28;20060;-71
2022/04/17 08:30:13;;;;;;;6.35;4.57;;;;;;;;;;5054376;28;20060;-70
2022/04/17 08:32:41;;;;;;;5.18;4.30;;;18.50;53.30;;;;;;5039520;28;20124;-71
2022/04/17 08:35:11;;;;;;;6.13;4.65;;;17.20;52.80;;;;;;5046192;28;20061;-71
2022/04/17 08:37:38;;;;;;;5.47;4.35;;;18.30;53.20;;;;;;5054433;28;20129;-71
2022/04/17 08:40:07;;;;;;;6.03;4.05;;;18.20;49.90;;;;;;5055282;28;20416;-70
2022/04/17 08:42:34;;;;;;;7.30;3.97;;;18.10;53.10;;;;;;5054566;28;20082;-71
2022/04/17 08:45:01;;;;;;;6.07;4.20;;;18.40;53.40;;;;;;5055367;28;20059;-70
2022/04/17 08:47:27;;;;;;;5.55;4.05;;;18.30;53.00;;;;;;5051685;28;20055;-71
2022/04/17 08:49:55;;;;;;;6.07;4.25;;;18.70;53.30;;;;;;5044688;28;20431;-71
2022/04/17 08:52:21;;;;;;;5.88;4.32;;;18.20;53.20;;;;;;5034421;28;20139;-71
2022/04/17 08:54:48;;;;;;;6.78;4.30;;;18.40;53.20;;;;;;5035749;28;20049;-71
2022/04/17 08:57:17;;;;;;;5.32;4.03;;;18.40;49.10;;;;;;5035038;28;20056;-71
2022/04/17 08:59:44;;;;;;;5.55;3.90;;;;;;;;;;5045715;28;20053;-71
2022/04/17 09:02:11;;;;;;;4.22;3.40;;;17.60;52.40;;;;;;5041673;28;20049;-70
2022/04/17 09:04:38;;;;;;;5.10;3.80;;;18.30;53.10;;;;;;5037337;28;20045;-70
2022/04/17 09:07:06;;;;;;;7.50;3.92;;;18.20;51.80;;;;;;5045263;28;20132;-71
2022/04/17 09:09:34;;;;;;;5.15;3.60;;;18.50;53.00;;;;;;5034045;28;20061;-70
2022/04/17 09:12:00;;;;;;;5.00;3.50;;;17.60;52.30;;;;;;5034209;28;20057;-70
2022/04/17 09:14:28;;;;;;;5.68;3.78;;;18.30;53.10;;;;;;5034044;28;20065;-70
2022/04/17 09:16:55;;;;;;;5.68;3.20;;;17.90;52.40;;;;;;5049614;28;20063;-70
2022/04/17 09:19:25;;;;;;;6.97;3.53;;;18.40;53.10;;;;;;5052280;28;20413;-70
2022/04/17 09:21:55;;;;;;;5.25;3.40;;;18.60;53.10;;;;;;5042372;28;20421;-70
2022/04/17 09:24:23;;;;;;;7.22;3.35;;;18.40;46.90;;;;;;5044886;28;20057;-70
2022/04/17 09:26:51;;;;;;;5.65;3.58;;;18.30;52.70;;;;;;5041797;28;20055;-70
2022/04/17 09:29:19;;;;;;;4.55;3.25;;;18.50;52.90;;;;;;5043495;28;20049;-70
2022/04/17 09:31:47;;;;;;;4.60;3.22;;;17.50;52.40;;;;;;5042835;28;20057;-70
2022/04/17 09:34:14;;;;;;;3.60;2.85;;;18.70;53.30;;;;;;5042767;28;20045;-70
2022/04/17 09:36:41;;;;;;;5.93;3.05;;;18.50;53.00;;;;;;5035381;28;20055;-70
2022/04/17 09:39:12;;;;;;;4.15;3.17;;;18.60;53.10;;;;;;5052336;28;20045;-71
2022/04/17 09:41:52;;;;;;;5.07;3.15;;;18.20;52.70;;;;;;5042984;28;20048;-70
2022/04/17 09:44:34;;;;;;;4.45;3.25;;;18.60;52.90;;;;;;5044240;28;20065;-69
2022/04/17 09:47:03;;;;;;;4.90;3.30;;;18.50;52.80;;;;;;5045314;28;21525;-70
2022/04/17 09:49:30;;;;;;;5.13;3.60;;;18.50;53.00;;;;;;5050065;28;20056;-70
2022/04/17 09:52:07;;;;;;;4.93;3.13;;;18.40;52.60;;;;;;5053247;28;20056;-70
2022/04/17 09:54:33;;;;;;;4.13;3.10;;;18.60;53.00;;;;;;5052996;28;20056;-70
2022/04/17 09:57:00;;;;;;;6.20;3.30;;;18.50;53.00;;;;;;5054347;28;20044;-70
2022/04/17 09:59:27;;;;;;;4.95;3.00;;;18.50;53.00;;;;;;5052793;28;20053;-70
2022/04/17 10:01:56;;;;;;;5.28;3.08;;;18.40;52.90;;;;;;5044159;28;20048;-70
2022/04/17 10:04:24;;;;;;;6.43;3.40;;;18.50;53.10;;;;;;5037867;28;20046;-69
2022/04/17 10:06:52;;;;;;;4.57;3.10;;;18.30;52.70;;;;;;5033755;28;20047;-70
2022/04/17 10:09:19;;;;;;;6.97;2.88;;;;;;;;;;5031368;28;20124;-69
2022/04/17 10:11:46;;;;;;;5.43;3.08;;;18.30;52.50;;;;;;5032224;28;20486;-70
2022/04/17 10:14:13;;;;;;;3.78;2.60;;;18.50;53.00;;;;;;5033134;28;20060;-70
2022/04/17 10:16:41;;;;;;;6.03;3.03;;;18.40;52.60;;;;;;5033321;28;20072;-69
2022/04/17 10:19:11;;;;;;;4.80;3.10;;;19.10;53.40;;;;;;5050662;28;20073;-69
2022/04/17 10:21:39;;;;;;;7.03;3.00;;;18.00;52.70;;;;;;5053668;28;20053;-70
2022/04/17 10:24:06;;;;;;;6.28;2.97;;;18.60;52.20;;;;;;5053786;28;20136;-70
2022/04/17 10:26:33;;;;;;;3.80;2.60;;;18.60;53.00;;;;;;5053790;28;20041;-70
2022/04/17 10:29:00;;;;;;;5.38;2.65;;;18.70;49.60;;;;;;5050275;28;20049;-71
2022/04/17 10:31:28;;;;;;;3.75;2.58;;;18.20;52.50;;;;;;5047867;28;20667;-71
2022/04/17 10:34:11;;;;;;;4.22;2.70;;;18.70;52.90;;;;;;5048803;28;20059;-70
2022/04/17 10:36:50;;;;;;;5.85;2.85;;;18.50;52.70;;;;;;5031338;28;20061;-70
2022/04/17 10:39:19;;;;;;;4.90;2.85;;;18.80;53.10;;;;;;5032258;28;20203;-71
2022/04/17 10:41:45;;;;;;;2.88;2.28;;;18.60;53.00;;;;;;5032271;28;20537;-70
2022/04/17 10:44:12;;;;;;;3.95;2.72;;;18.20;52.90;;;;;;5030866;28;20057;-70
2022/04/17 10:46:46;;;;;;;3.90;2.70;;;18.50;52.90;;;;;;5031655;28;20057;-70
2022/04/17 10:49:13;;;;;;;5.28;2.75;;;18.50;53.10;;;;;;5033025;28;20129;-70
2022/04/17 10:51:47;;;;;;;4.72;2.60;;;18.40;53.00;;;;;;5032247;28;20557;-70
2022/04/17 10:54:14;;;;;;;3.95;2.75;;;17.50;52.30;;;;;;5033444;28;20049;-70
2022/04/17 10:56:42;;;;;;;4.93;2.50;;;18.40;53.10;;;;;;5032176;28;20053;-71
2022/04/17 10:59:16;;;;;;;3.30;2.42;;;18.10;53.00;;;;;;5032284;28;20055;-70
2022/04/17 11:01:53;;;;;;;2.75;2.20;;;18.20;52.70;;;;;;5031870;28;20058;-70
2022/04/17 11:04:22;;;;;;;2.65;2.30;;;18.50;53.10;;;;;;5032006;28;20053;-70
2022/04/17 11:06:54;;;;;;;3.55;2.58;;;17.80;52.90;;;;;;5032850;28;20486;-70
2022/04/17 11:09:21;;;;;;;3.05;2.40;;;17.60;52.80;;;;;;5031764;28;20099;-70
2022/04/17 11:11:48;;;;;;;3.38;2.30;;;18.50;53.20;;;;;;5031452;28;20149;-70
2022/04/17 11:14:18;;;;;;;3.65;2.40;;;18.40;52.80;;;;;;5031761;28;20413;-70
2022/04/17 11:16:49;;;;;;;3.97;2.08;;;18.40;53.10;;;;;;5032816;28;20056;-70
2022/04/17 11:19:18;;;;;;;3.88;2.40;;;18.80;53.40;;;;;;5032132;28;20054;-70
2022/04/17 11:21:45;;;;;;;3.25;2.10;;;18.40;53.40;;;;;;5032877;28;20045;-71
2022/04/17 11:24:13;;;;;;;5.10;2.40;;;18.00;52.80;;;;;;5034137;28;20052;-71
2022/04/17 11:27:10;;;;;;;3.13;2.40;;;18.50;53.10;;;;;;5031641;28;20055;-71
2022/04/17 11:29:43;;;;;;;4.65;2.20;;;17.60;52.70;;;;;;5030974;28;20542;-71
2022/04/17 11:32:47;;;;;;;3.33;2.30;;;18.20;53.30;;;;;;5032553;28;20073;-70
2022/04/17 11:35:15;;;;;;;3.35;2.20;;;17.80;52.60;;;;;;5031282;28;20090;-70
2022/04/17 11:38:06;;;;;;;4.07;2.30;;;18.30;53.20;;;;;;5032596;28;20053;-70
2022/04/17 11:40:36;;;;;;;2.80;2.20;;;18.40;53.10;;;;;;5031551;28;20049;-70
2022/04/17 11:43:10;;;;;;;3.67;2.40;;;18.40;52.90;;;;;;5031104;28;20058;-71
2022/04/17 11:45:36;;;;;;;4.57;2.00;;;17.60;52.60;;;;;;5032276;28;20046;-71
2022/04/17 11:48:05;;;;;;;3.95;2.17;;;18.10;53.10;;;;;;5032210;28;20046;-71
2022/04/17 11:50:32;;;;;;;2.60;2.03;;;18.60;51.10;;;;;;5032164;28;20054;-70
2022/04/17 11:52:59;;;;;;;2.88;2.20;;;18.50;53.10;;;;;;5031150;28;20064;-71
2022/04/17 11:55:28;;;;;;;4.28;2.42;;;18.50;53.00;;;;;;5031935;28;20049;-71
2022/04/17 11:57:56;;;;;;;2.40;2.05;;;18.40;47.30;;;;;;5032039;28;20056;-71
2022/04/17 12:00:24;;;;;;;2.95;2.10;;;18.30;53.10;;;;;;5030820;28;20169;-71
2022/04/17 12:02:55;;;;;;;2.25;2.00;;;18.30;52.80;;;;;;5030725;28;20088;-71
2022/04/17 12:05:22;;;;;;;2.88;2.15;;;18.90;53.20;;;;;;5031924;28;20409;-69
2022/04/17 12:07:56;;;;;;;2.40;2.00;;;18.60;53.30;;;;;;5031738;28;20073;-69
2022/04/17 12:10:23;;;;;;;3.20;2.10;;;17.50;52.50;;;;;;5030766;28;20056;-69
2022/04/17 12:12:50;;;;;;;3.10;2.05;;;17.50;52.70;;;;;;5043201;28;20057;-71
2022/04/17 12:15:19;;;;;;;2.75;2.03;;;18.50;53.00;;;;;;5038791;28;20061;-70
2022/04/17 12:17:45;;;;;;;2.78;2.00;;;18.50;53.20;;;;;;5043684;28;20053;-70
2022/04/17 12:20:13;;;;;;;4.15;2.10;;;18.20;53.30;;;;;;5042956;28;20413;-70
2022/04/17 12:22:40;;;;;;;2.80;2.20;;;18.60;53.30;;;;;;5039494;28;20053;-70
2022/04/17 12:25:15;;;;;;;5.10;1.95;;;17.80;52.80;;;;;;5045829;28;20049;-70
2022/04/17 12:27:42;;;;;;;2.63;2.05;;;18.50;53.10;;;;;;5050493;28;20060;-69
2022/04/17 12:30:10;;;;;;;2.13;1.80;;;18.40;52.80;;;;;;5049901;28;20053;-71
2022/04/17 12:32:45;;;;;;;2.70;2.00;;;17.90;53.00;;;;;;5049216;28;20049;-70
2022/04/17 12:35:13;;;;;;;3.28;2.45;;;18.40;53.30;;;;;;5039263;28;20050;-70
2022/04/17 12:37:39;;;;;;;3.03;1.90;;;18.40;53.20;;;;;;5042094;28;20053;-70
2022/04/17 12:40:10;;;;;;;2.80;1.90;;;18.30;53.10;;;;;;5040217;28;20045;-70
2022/04/17 12:42:37;;;;;;;4.43;2.25;;;18.40;53.40;;;;;;5044679;28;20052;-69
2022/04/17 12:45:04;;;;;;;5.70;2.10;;;18.40;53.40;;;;;;5050540;28;20083;-69
2022/04/17 12:47:31;;;;;;;2.70;1.90;;;18.40;53.30;;;;;;5051707;28;20417;-69
2022/04/17 12:50:04;;;;;;;3.00;2.00;;;19.10;53.70;;;;;;5051272;28;20041;-69
2022/04/17 12:52:31;;;;;;;2.20;1.70;;;18.60;53.60;;;;;;5045150;28;20059;-69
2022/04/17 12:55:06;;;;;;;3.92;1.73;;;18.90;53.90;;;;;;5042756;28;20044;-69
2022/04/17 12:57:32;;;;;;;3.90;1.90;;;18.50;53.60;;;;;;5051626;28;20067;-68
2022/04/17 12:59:59;;;;;;;3.22;2.00;;;18.30;53.50;;;;;;5050118;28;20063;-69
2022/04/17 13:02:26;;;;;;;2.40;1.80;;;19.20;53.90;;;;;;5050416;28;20405;-68
2022/04/17 13:04:54;;;;;;;2.78;1.80;;;18.70;53.70;;;;;;5050363;28;20053;-70
2022/04/17 13:07:22;;;;;;;2.25;1.60;;;19.30;54.00;;;;;;5049863;28;20045;-70
2022/04/17 13:09:50;;;;;;;2.88;1.70;;;18.50;53.60;;;;;;5049915;28;20049;-70